createdAt,value
2022-08-17T00:02:26.058Z,47.88
2022-08-17T00:04:57.859Z,48.03
2022-08-17T00:07:24.418Z,47.70
2022-08-17T00:09:50.918Z,48.14
2022-08-17T00:12:43.098Z,48.34
2022-08-17T00:15:10.314Z,48.51
2022-08-17T00:17:37.804Z,48.35
2022-08-17T00:20:05.042Z,48.32
2022-08-17T00:22:36.081Z,48.78
2022-08-17T00:25:10.286Z,48.58
2022-08-17T00:27:37.128Z,48.67
2022-08-17T00:30:06.774Z,48.62
2022-08-17T00:33:12.651Z,48.79
2022-08-17T00:35:30.312Z,48.58
2022-08-17T00:37:56.824Z,48.80
2022-08-17T00:40:24.934Z,48.81
2022-08-17T00:42:52.618Z,49.00
2022-08-17T00:45:21.130Z,49.06
2022-08-17T00:47:48.008Z,49.18
2022-08-17T00:50:17.665Z,49.10
2022-08-17T00:52:56.355Z,49.33
2022-08-17T00:55:25.504Z,49.12
2022-08-17T00:57:56.860Z,49.31
2022-08-17T01:00:33.503Z,49.29
2022-08-17T01:03:19.803Z,49.42
2022-08-17T01:05:51.312Z,49.15
2022-08-17T01:08:22.209Z,49.39
2022-08-17T01:11:00.186Z,49.48
2022-08-17T01:13:40.811Z,49.58
2022-08-17T01:16:18.124Z,49.50
2022-08-17T01:18:48.139Z,49.56
2022-08-17T01:21:24.534Z,49.78
2022-08-17T01:23:56.324Z,49.77
2022-08-17T01:26:23.613Z,50.01
2022-08-17T01:28:53.934Z,49.73
2022-08-17T01:31:24.166Z,50.14
2022-08-17T01:33:53.084Z,49.95
2022-08-17T01:36:19.743Z,49.83
2022-08-17T01:38:46.363Z,50.31
2022-08-17T01:41:16.483Z,50.31
2022-08-17T01:43:51.982Z,50.37
2022-08-17T01:46:26.996Z,50.41
2022-08-17T01:48:54.264Z,50.27
2022-08-17T01:51:21.734Z,50.43
2022-08-17T01:53:52.576Z,50.30
2022-08-17T01:56:22.473Z,50.69
2022-08-17T01:58:49.002Z,50.63
2022-08-17T02:01:18.954Z,50.95
2022-08-17T02:03:53.147Z,50.70
2022-08-17T02:06:27.503Z,50.98
2022-08-17T02:09:01.477Z,50.92
2022-08-17T02:11:30.479Z,50.98
2022-08-17T02:14:03.592Z,51.05
2022-08-17T02:16:37.110Z,50.70
2022-08-17T02:19:11.069Z,50.94
2022-08-17T02:21:38.938Z,50.91
2022-08-17T02:24:13.237Z,51.04
2022-08-17T02:26:39.906Z,51.16
2022-08-17T02:29:07.228Z,51.04
2022-08-17T02:31:35.474Z,51.06
2022-08-17T02:34:06.145Z,51.37
2022-08-17T02:36:36.368Z,51.35
2022-08-17T02:39:05.460Z,51.62
2022-08-17T02:41:32.793Z,51.59
2022-08-17T02:43:59.497Z,51.69
2022-08-17T02:46:26.265Z,51.74
2022-08-17T02:48:52.810Z,51.81
2022-08-17T02:51:19.417Z,51.46
2022-08-17T02:53:46.736Z,51.94
2022-08-17T02:56:13.682Z,51.86
2022-08-17T02:58:40.198Z,51.93
2022-08-17T03:01:10.009Z,51.93
2022-08-17T03:03:38.823Z,52.03
2022-08-17T03:06:07.355Z,51.97
2022-08-17T03:08:34.757Z,52.31
2022-08-17T03:11:01.611Z,52.01
2022-08-17T03:13:30.740Z,52.15
2022-08-17T03:15:57.317Z,52.14
2022-08-17T03:18:26.299Z,52.01
2022-08-17T03:20:59.341Z,52.02
2022-08-17T03:23:31.095Z,51.99
2022-08-17T03:25:58.790Z,52.01
2022-08-17T03:28:26.047Z,52.12
2022-08-17T03:30:52.889Z,52.18
2022-08-17T03:33:21.497Z,52.13
2022-08-17T03:35:48.371Z,52.21
2022-08-17T03:38:17.008Z,52.42
2022-08-17T03:40:56.997Z,52.49
2022-08-17T03:43:32.271Z,52.29
2022-08-17T03:46:34.266Z,52.26
2022-08-17T03:49:26.240Z,52.23
2022-08-17T03:52:15.882Z,52.16
2022-08-17T03:55:02.066Z,52.21
2022-08-17T03:57:29.166Z,52.22
2022-08-17T03:59:56.294Z,52.34
2022-08-17T04:02:29.618Z,52.33
2022-08-17T04:04:56.723Z,52.52
2022-08-17T04:07:26.180Z,52.27
2022-08-17T04:09:52.852Z,52.52
2022-08-17T04:12:22.026Z,52.59
2022-08-17T04:14:54.980Z,52.54
2022-08-17T04:17:28.322Z,52.57
2022-08-17T04:19:55.609Z,52.65
2022-08-17T04:22:30.978Z,52.62
2022-08-17T04:25:05.075Z,52.54
2022-08-17T04:27:31.727Z,52.82
2022-08-17T04:29:58.705Z,52.47
2022-08-17T04:33:00.767Z,52.93
2022-08-17T04:35:18.797Z,52.87
2022-08-17T04:37:45.407Z,53.08
2022-08-17T04:40:30.626Z,52.79
2022-08-17T04:43:30.881Z,53.17
2022-08-17T04:46:00.533Z,53.20
2022-08-17T04:48:36.365Z,53.33
2022-08-17T04:51:11.246Z,53.26
2022-08-17T04:53:45.190Z,53.44
2022-08-17T04:56:16.655Z,53.58
2022-08-17T04:58:49.730Z,53.32
2022-08-17T05:01:23.457Z,53.50
2022-08-17T05:03:54.295Z,53.37
2022-08-17T05:06:21.330Z,53.31
2022-08-17T05:08:47.934Z,53.20
2022-08-17T05:11:14.945Z,53.22
2022-08-17T05:13:41.958Z,53.46
2022-08-17T05:16:09.140Z,53.55
2022-08-17T05:18:37.230Z,53.90
2022-08-17T05:21:04.334Z,53.74
2022-08-17T05:23:42.524Z,53.97
2022-08-17T05:26:26.387Z,54.09
2022-08-17T05:29:02.607Z,54.13
2022-08-17T05:31:30.811Z,54.22
2022-08-17T05:34:01.795Z,54.65
2022-08-17T05:36:42.446Z,54.61
2022-08-17T05:39:16.462Z,54.40
2022-08-17T05:41:45.768Z,54.76
2022-08-17T05:44:14.290Z,54.47
2022-08-17T05:46:44.050Z,54.50
2022-08-17T05:49:13.163Z,54.45
2022-08-17T05:52:18.801Z,54.50
2022-08-17T05:55:10.463Z,54.75
2022-08-17T05:58:03.924Z,54.58
2022-08-17T06:00:42.100Z,54.59
2022-08-17T06:03:49.367Z,54.94
2022-08-17T06:06:31.545Z,54.71
2022-08-17T06:08:58.150Z,54.61
2022-08-17T06:11:36.927Z,54.75
2022-08-17T06:14:09.866Z,54.67
2022-08-17T06:16:44.016Z,54.84
2022-08-17T06:19:32.046Z,54.88
2022-08-17T06:22:00.503Z,54.76
2022-08-17T06:24:44.037Z,54.81
2022-08-17T06:27:38.769Z,55.02
2022-08-17T06:30:25.762Z,54.75
2022-08-17T06:32:55.372Z,54.62
2022-08-17T06:35:31.888Z,54.87
2022-08-17T06:38:33.955Z,54.75
2022-08-17T06:41:04.249Z,55.02
2022-08-17T06:44:03.051Z,55.18
2022-08-17T06:46:41.399Z,54.82
2022-08-17T06:49:21.886Z,54.83
2022-08-17T06:51:57.358Z,54.70
2022-08-17T06:54:40.608Z,54.83
2022-08-17T06:57:23.219Z,54.54
2022-08-17T06:59:59.236Z,54.47
2022-08-17T07:03:02.681Z,54.39
2022-08-17T07:05:36.514Z,54.41
2022-08-17T07:08:14.581Z,54.26
2022-08-17T07:10:47.549Z,54.23
2022-08-17T07:13:25.496Z,54.25
2022-08-17T07:15:58.939Z,54.00
2022-08-17T07:18:29.685Z,54.28
2022-08-17T07:21:08.362Z,54.16
2022-08-17T07:24:01.041Z,54.12
2022-08-17T07:26:28.569Z,54.02
2022-08-17T07:28:58.433Z,54.16
2022-08-17T07:31:28.496Z,54.08
2022-08-17T07:34:22.979Z,54.09
2022-08-17T07:37:03.376Z,54.12
2022-08-17T07:39:30.322Z,53.84
2022-08-17T07:42:05.086Z,53.83
2022-08-17T07:44:50.407Z,53.89
2022-08-17T07:47:35.959Z,53.54
2022-08-17T07:50:03.023Z,53.56
2022-08-17T07:52:50.524Z,53.30
2022-08-17T07:55:34.981Z,53.27
2022-08-17T07:58:01.982Z,53.35
2022-08-17T08:00:31.961Z,53.04
2022-08-17T08:03:05.554Z,52.91
2022-08-17T08:05:50.037Z,52.79
2022-08-17T08:08:24.317Z,52.71
2022-08-17T08:11:04.546Z,52.48
2022-08-17T08:13:42.436Z,52.46
2022-08-17T08:16:24.551Z,52.44
2022-08-17T08:18:58.335Z,52.17
2022-08-17T08:21:46.345Z,52.24
2022-08-17T08:24:43.495Z,52.46
2022-08-17T08:27:28.246Z,52.76
2022-08-17T08:29:55.188Z,53.15
2022-08-17T08:32:53.977Z,53.35
2022-08-17T08:35:53.584Z,53.54
2022-08-17T08:38:28.228Z,53.60
2022-08-17T08:41:16.437Z,53.97
2022-08-17T08:44:12.104Z,54.47
2022-08-17T08:47:00.722Z,54.34
2022-08-17T08:50:03.449Z,54.42
2022-08-17T08:52:31.001Z,54.77
2022-08-17T08:55:08.626Z,54.93
2022-08-17T08:57:47.118Z,54.98
2022-08-17T09:00:15.970Z,54.90
2022-08-17T09:03:20.094Z,54.92
2022-08-17T09:06:33.352Z,54.70
2022-08-17T09:09:18.054Z,54.59
2022-08-17T09:12:02.412Z,54.34
2022-08-17T09:15:21.523Z,53.58
2022-08-17T09:19:00.418Z,53.14
2022-08-17T09:21:28.735Z,52.87
2022-08-17T09:24:21.003Z,52.79
2022-08-17T09:27:20.110Z,52.63
2022-08-17T09:29:58.384Z,52.47
2022-08-17T09:32:34.057Z,52.23
2022-08-17T09:35:16.142Z,52.03
2022-08-17T09:38:05.910Z,52.06
2022-08-17T09:40:45.004Z,51.60
2022-08-17T09:43:49.124Z,51.70
2022-08-17T09:46:34.692Z,51.88
2022-08-17T09:49:31.488Z,51.59
2022-08-17T09:52:05.649Z,51.49
2022-08-17T09:54:39.660Z,51.42
2022-08-17T09:57:31.489Z,51.34
2022-08-17T10:00:10.042Z,51.38
2022-08-17T10:03:29.863Z,51.51
2022-08-17T10:06:13.296Z,51.31
2022-08-17T10:08:52.985Z,51.26
2022-08-17T10:12:10.253Z,50.94
2022-08-17T10:15:05.069Z,50.81
2022-08-17T10:17:50.590Z,50.49
2022-08-17T10:20:25.563Z,50.81
2022-08-17T10:23:22.453Z,50.79
2022-08-17T10:26:04.570Z,50.89
2022-08-17T10:28:44.252Z,50.76
2022-08-17T10:31:34.226Z,50.80
2022-08-17T10:34:38.694Z,50.51
2022-08-17T10:37:28.263Z,50.81
2022-08-17T10:40:26.463Z,50.87
2022-08-17T10:43:44.711Z,50.99
2022-08-17T10:46:57.406Z,51.14
2022-08-17T10:49:32.552Z,51.41
2022-08-17T10:52:03.514Z,51.54
2022-08-17T10:54:45.428Z,51.49
2022-08-17T10:57:27.325Z,51.65
2022-08-17T10:59:58.467Z,51.72
2022-08-17T11:02:49.349Z,51.79
2022-08-17T11:05:28.927Z,51.70
2022-08-17T11:08:19.471Z,51.78
2022-08-17T11:11:06.690Z,51.84
2022-08-17T11:13:48.395Z,52.10
2022-08-17T11:16:40.849Z,51.96
2022-08-17T11:19:13.101Z,52.03
2022-08-17T11:22:12.100Z,52.06
2022-08-17T11:24:48.028Z,52.24
2022-08-17T11:27:31.715Z,52.33
2022-08-17T11:30:03.279Z,52.47
2022-08-17T11:32:33.327Z,52.57
2022-08-17T11:35:45.035Z,52.65
2022-08-17T11:38:16.024Z,52.40
2022-08-17T11:41:18.673Z,52.37
2022-08-17T11:44:24.713Z,52.52
2022-08-17T11:47:41.167Z,52.74
2022-08-17T11:50:35.615Z,52.68
2022-08-17T11:53:07.051Z,52.57
2022-08-17T11:55:38.555Z,52.73
2022-08-17T11:58:38.573Z,52.89
2022-08-17T12:01:23.261Z,52.89
2022-08-17T12:03:58.754Z,52.69
2022-08-17T12:06:46.635Z,52.93
2022-08-17T12:09:22.117Z,53.10
2022-08-17T12:12:13.461Z,53.26
2022-08-17T12:17:40.193Z,53.37
2022-08-17T12:20:31.680Z,53.46
2022-08-17T12:23:30.208Z,53.53
2022-08-17T12:26:19.796Z,53.65
2022-08-17T12:28:57.201Z,53.72
2022-08-17T12:31:31.108Z,53.57
2022-08-17T12:34:03.914Z,53.62
2022-08-17T12:36:31.984Z,53.53
2022-08-17T12:39:14.317Z,53.84
2022-08-17T12:41:52.040Z,54.03
2022-08-17T12:44:23.124Z,53.89
2022-08-17T12:46:53.178Z,54.15
2022-08-17T12:49:24.625Z,54.41
2022-08-17T12:51:56.950Z,54.48
2022-08-17T12:54:31.575Z,54.45
2022-08-17T12:57:05.456Z,54.50
2022-08-17T12:59:33.059Z,54.49
2022-08-17T13:02:00.887Z,54.47
2022-08-17T13:04:29.512Z,54.48
2022-08-17T13:06:58.205Z,54.48
2022-08-17T13:09:35.334Z,54.67
2022-08-17T13:12:03.291Z,54.91
2022-08-17T13:14:32.684Z,55.05
2022-08-17T13:17:07.153Z,55.26
2022-08-17T13:19:47.974Z,55.21
2022-08-17T13:22:14.666Z,55.28
2022-08-17T13:25:09.211Z,55.55
2022-08-17T13:27:36.044Z,55.77
2022-08-17T13:30:11.590Z,55.84
2022-08-17T13:32:46.474Z,55.84
2022-08-17T13:35:32.223Z,55.89
2022-08-17T13:38:12.502Z,55.90
2022-08-17T13:40:52.927Z,56.12
2022-08-17T13:43:48.435Z,56.45
2022-08-17T13:46:21.511Z,56.42
2022-08-17T13:49:01.910Z,56.59
2022-08-17T13:51:35.467Z,56.51
2022-08-17T13:54:06.510Z,56.83
2022-08-17T13:56:40.742Z,56.75
2022-08-17T13:59:14.653Z,56.62
2022-08-17T14:01:48.474Z,56.82
2022-08-17T14:04:27.758Z,56.45
2022-08-17T14:07:01.188Z,56.56
2022-08-17T14:09:37.185Z,56.50
2022-08-17T14:12:08.841Z,56.69
2022-08-17T14:14:40.706Z,56.89
2022-08-17T14:17:07.983Z,56.77
2022-08-17T14:19:35.114Z,56.80
2022-08-17T14:22:02.107Z,57.02
2022-08-17T14:24:32.690Z,56.99
2022-08-17T14:27:01.450Z,56.99
2022-08-17T14:29:29.780Z,56.98
2022-08-17T14:31:57.765Z,56.75
2022-08-17T14:34:25.236Z,56.79
2022-08-17T14:36:52.314Z,56.67
2022-08-17T14:39:19.150Z,56.84
2022-08-17T14:41:46.310Z,56.61
2022-08-17T14:44:13.941Z,56.55
2022-08-17T14:46:42.886Z,56.59
2022-08-17T14:49:11.446Z,56.64
2022-08-17T14:51:43.533Z,56.34
2022-08-17T14:54:33.552Z,56.47
2022-08-17T14:57:24.745Z,56.52
2022-08-17T14:59:50.707Z,56.26
2022-08-17T15:02:29.276Z,56.29
2022-08-17T15:05:03.959Z,56.41
2022-08-17T15:07:31.525Z,56.44
2022-08-17T15:10:00.914Z,56.92
2022-08-17T15:12:32.242Z,56.98
2022-08-17T15:15:00.816Z,56.95
2022-08-17T15:17:44.662Z,57.12
2022-08-17T15:20:25.272Z,56.99
2022-08-17T15:22:55.927Z,56.93
2022-08-17T15:25:25.125Z,57.03
2022-08-17T15:27:52.167Z,57.08
2022-08-17T15:30:19.155Z,57.08
2022-08-17T15:32:51.597Z,57.09
2022-08-17T15:35:27.383Z,57.01
2022-08-17T15:37:56.430Z,56.78
2022-08-17T15:40:23.007Z,57.08
2022-08-17T15:42:51.015Z,57.31
2022-08-17T15:45:24.819Z,57.00
2022-08-17T15:47:52.528Z,56.97
2022-08-17T15:50:19.426Z,56.99
2022-08-17T15:52:47.457Z,56.94
2022-08-17T15:55:15.499Z,56.90
2022-08-17T15:57:42.305Z,57.03
2022-08-17T16:00:09.692Z,56.84
2022-08-17T16:03:44.913Z,56.50
2022-08-17T16:05:28.572Z,56.46
2022-08-17T16:07:59.569Z,56.27
2022-08-17T16:10:35.494Z,56.52
2022-08-17T16:13:17.553Z,56.42
2022-08-17T16:15:47.794Z,56.49
2022-08-17T16:18:20.507Z,56.33
2022-08-17T16:20:47.237Z,56.18
2022-08-17T16:23:20.080Z,56.47
2022-08-17T16:25:53.684Z,56.11
2022-08-17T16:28:21.792Z,56.21
2022-08-17T16:30:48.282Z,56.25
2022-08-17T16:33:16.922Z,56.25
2022-08-17T16:35:43.490Z,56.39
2022-08-17T16:38:10.854Z,56.37
2022-08-17T16:40:38.038Z,56.56
2022-08-17T16:43:12.010Z,56.39
2022-08-17T16:45:39.929Z,56.25
2022-08-17T16:48:08.356Z,56.28
2022-08-17T16:50:35.462Z,56.34
2022-08-17T16:53:11.160Z,56.13
2022-08-17T16:55:38.462Z,55.85
2022-08-17T16:58:06.459Z,56.16
2022-08-17T17:00:33.629Z,56.24
2022-08-17T17:03:26.054Z,56.27
2022-08-17T17:06:01.674Z,56.28
2022-08-17T17:08:55.884Z,56.24
2022-08-17T17:11:31.234Z,56.26
2022-08-17T17:14:09.058Z,56.37
2022-08-17T17:16:47.714Z,56.33
2022-08-17T17:19:35.183Z,56.12
2022-08-17T17:22:16.339Z,56.37
2022-08-17T17:25:14.370Z,56.35
2022-08-17T17:27:59.694Z,56.45
2022-08-17T17:30:33.103Z,56.49
2022-08-17T17:33:29.733Z,56.55
2022-08-17T17:36:07.219Z,56.45
2022-08-17T17:38:49.450Z,56.36
2022-08-17T17:41:26.342Z,56.34
2022-08-17T17:44:01.834Z,56.26
2022-08-17T17:46:37.943Z,56.27
2022-08-17T17:49:05.876Z,56.12
2022-08-17T17:51:55.054Z,56.08
2022-08-17T17:54:49.160Z,56.12
2022-08-17T17:57:44.192Z,56.21
2022-08-17T18:01:04.695Z,56.31
2022-08-17T18:04:01.466Z,56.39
2022-08-17T18:06:49.846Z,56.39
2022-08-17T18:09:38.389Z,56.34
2022-08-17T18:12:19.768Z,56.38
2022-08-17T18:15:00.113Z,56.42
2022-08-17T18:17:29.139Z,56.48
2022-08-17T18:19:56.107Z,56.17
2022-08-17T18:22:23.735Z,56.44
2022-08-17T18:24:57.995Z,56.46
2022-08-17T18:27:36.568Z,56.44
2022-08-17T18:30:27.208Z,56.46
2022-08-17T18:32:53.810Z,56.58
2022-08-17T18:35:21.680Z,56.85
2022-08-17T18:37:50.299Z,56.79
2022-08-17T18:40:26.447Z,56.91
2022-08-17T18:43:52.659Z,56.68
2022-08-17T18:46:28.194Z,56.81
2022-08-17T18:49:06.750Z,56.79
2022-08-17T18:51:43.306Z,57.02
2022-08-17T18:54:23.404Z,56.75
2022-08-17T18:56:56.642Z,56.91
2022-08-17T18:59:28.888Z,56.72
2022-08-17T19:02:24.928Z,56.72
2022-08-17T19:05:07.945Z,56.61
2022-08-17T19:07:44.258Z,56.84
2022-08-17T19:10:51.323Z,56.88
2022-08-17T19:13:28.470Z,56.78
2022-08-17T19:16:14.671Z,56.69
2022-08-17T19:19:19.566Z,56.76
2022-08-17T19:22:17.009Z,56.80
2022-08-17T19:25:05.967Z,56.42
2022-08-17T19:28:03.071Z,56.83
2022-08-17T19:30:30.102Z,56.82
2022-08-17T19:33:05.460Z,56.69
2022-08-17T19:35:46.598Z,56.69
2022-08-17T19:38:44.559Z,56.68
2022-08-17T19:41:25.645Z,56.72
2022-08-17T19:44:16.970Z,56.71
2022-08-17T19:46:56.218Z,56.68
2022-08-17T19:49:48.988Z,56.69
2022-08-17T19:52:23.995Z,56.85
2022-08-17T19:55:16.931Z,56.91
2022-08-17T19:58:18.010Z,56.77
2022-08-17T20:00:50.597Z,56.93
2022-08-17T20:03:38.463Z,57.16
2022-08-17T20:06:13.179Z,57.01
2022-08-17T20:08:53.727Z,57.16
2022-08-17T20:11:31.389Z,57.22
2022-08-17T20:14:14.320Z,57.07
2022-08-17T20:16:41.170Z,57.23
2022-08-17T20:19:19.715Z,57.21
2022-08-17T20:21:53.904Z,57.00
2022-08-17T20:24:52.949Z,57.05
2022-08-17T20:27:31.331Z,56.96
2022-08-17T20:30:11.516Z,57.04
2022-08-17T20:32:48.535Z,57.05
2022-08-17T20:35:16.834Z,56.53
2022-08-17T20:37:53.274Z,56.62
2022-08-17T20:40:25.925Z,56.88
2022-08-17T20:42:52.811Z,56.98
2022-08-17T20:45:23.336Z,56.94
2022-08-17T20:48:21.619Z,56.95
2022-08-17T20:50:51.350Z,57.31
2022-08-17T20:53:58.254Z,57.60
2022-08-17T20:56:43.335Z,57.42
2022-08-17T20:59:30.412Z,57.35
2022-08-17T21:02:18.425Z,57.63
2022-08-17T21:04:52.886Z,57.47
2022-08-17T21:07:43.499Z,57.54
2022-08-17T21:10:10.276Z,57.76
2022-08-17T21:12:52.714Z,57.64
2022-08-17T21:15:44.314Z,57.90
2022-08-17T21:18:19.786Z,57.44
2022-08-17T21:21:03.619Z,57.34
2022-08-17T21:24:04.090Z,57.46
2022-08-17T21:26:57.665Z,57.35
2022-08-17T21:29:31.310Z,57.28
2022-08-17T21:31:59.543Z,57.35
2022-08-17T21:34:34.691Z,57.06
2022-08-17T21:37:19.834Z,57.56
2022-08-17T21:39:54.962Z,57.16
2022-08-17T21:42:34.362Z,57.39
2022-08-17T21:45:10.087Z,57.42
2022-08-17T21:47:40.858Z,57.70
2022-08-17T21:50:21.798Z,57.68
2022-08-17T21:52:50.007Z,58.05
2022-08-17T21:55:21.967Z,58.05
2022-08-17T21:57:52.761Z,57.85
2022-08-17T22:00:32.135Z,57.95
2022-08-17T22:03:23.793Z,57.92
2022-08-17T22:05:51.340Z,58.01
2022-08-17T22:08:22.266Z,58.33
2022-08-17T22:10:51.111Z,58.20
2022-08-17T22:13:29.352Z,58.25
2022-08-17T22:16:05.931Z,58.46
2022-08-17T22:18:53.695Z,58.18
2022-08-17T22:21:20.725Z,58.54
2022-08-17T22:24:20.305Z,58.48
2022-08-17T22:27:03.489Z,58.83
2022-08-17T22:29:53.206Z,58.79
2022-08-17T22:32:35.319Z,58.89
2022-08-17T22:35:32.874Z,58.99
2022-08-17T22:38:32.412Z,59.01
2022-08-17T22:41:26.745Z,59.10
2022-08-17T22:43:57.378Z,59.01
2022-08-17T22:46:25.540Z,59.04
2022-08-17T22:48:56.724Z,59.24
2022-08-17T22:51:28.354Z,59.50
2022-08-17T22:54:20.222Z,59.36
2022-08-17T22:57:18.602Z,59.51
2022-08-17T22:59:50.470Z,59.60
2022-08-17T23:02:26.561Z,59.73
2022-08-17T23:05:15.686Z,59.55
2022-08-17T23:07:44.581Z,59.73
2022-08-17T23:10:12.637Z,59.75
2022-08-17T23:12:39.907Z,59.68
2022-08-17T23:15:14.763Z,59.62
2022-08-17T23:17:42.075Z,59.67
2022-08-17T23:20:14.007Z,59.51
2022-08-17T23:22:51.071Z,59.82
2022-08-17T23:25:31.911Z,59.63
2022-08-17T23:28:01.579Z,59.51
2022-08-17T23:30:31.276Z,59.48
2022-08-17T23:33:25.591Z,59.39
2022-08-17T23:35:53.064Z,59.62
2022-08-17T23:38:19.669Z,59.45
2022-08-17T23:40:46.170Z,59.61
2022-08-17T23:43:23.693Z,59.77
2022-08-17T23:45:55.249Z,59.90
2022-08-17T23:48:35.115Z,60.00
2022-08-17T23:51:12.291Z,59.84
2022-08-17T23:53:47.278Z,59.78
2022-08-17T23:56:14.653Z,60.00
2022-08-17T23:58:43.046Z,59.91
